Time;durP1;ratioP1;P1;durP2;ratioP2;P2;SDS_P1;SDS_P2;PMS_P1;PMS_P2;Temp;Humidity;BMP_temperature;BMP_pressure;BME280_temperature;BME280_humidity;BME280_pressure;Samples;Min_cycle;Max_cycle;Signal;HPM_P1;HPM_P2
2023/07/18 00:01:20;;;;;;;1.33;1.08;;;;;;;;;;5049182;28;20598;-56
2023/07/18 00:03:45;;;;;;;1.10;1.00;;;;;;;;;;5049071;28;20228;-56
2023/07/18 00:06:11;;;;;;;0.95;0.88;;;;;;;;;;5073701;28;20196;-56
2023/07/18 00:08:40;;;;;;;1.20;1.02;;;;;;;;;;5058916;28;20523;-56
2023/07/18 00:11:06;;;;;;;1.15;0.80;;;;;;;;;;5045845;28;20203;-56
2023/07/18 00:13:31;;;;;;;1.00;0.90;;;;;;;;;;5049481;28;20256;-56
2023/07/18 00:15:57;;;;;;;1.40;0.90;;;;;;;;;;5047695;28;20183;-56
2023/07/18 00:18:23;;;;;;;0.70;0.70;;;;;;;;;;5046708;28;20182;-56
2023/07/18 00:20:49;;;;;;;1.10;0.98;;;;;;;;;;5043360;28;20183;-56
2023/07/18 00:23:15;;;;;;;1.20;1.00;;;;;;;;;;5069050;28;20183;-57
2023/07/18 00:25:41;;;;;;;1.27;1.17;;;;;;;;;;5052555;28;20211;-57
2023/07/18 00:28:09;;;;;;;0.80;0.80;;;;;;;;;;5047944;28;20538;-57
2023/07/18 00:30:35;;;;;;;1.02;0.93;;;;;;;;;;5047460;28;20629;-56
2023/07/18 00:33:01;;;;;;;0.80;0.80;;;;;;;;;;5054775;28;20194;-56
2023/07/18 00:35:27;;;;;;;0.98;0.90;;;;;;;;;;5060255;28;20171;-56
2023/07/18 00:37:53;;;;;;;1.00;0.85;;;;;;;;;;5059987;28;20189;-56
2023/07/18 00:40:19;;;;;;;0.80;0.80;;;;;;;;;;5060388;28;20179;-56
2023/07/18 00:42:46;;;;;;;2.90;0.75;;;;;;;;;;5056815;28;20190;-56
2023/07/18 00:45:13;;;;;;;1.10;1.00;;;;;;;;;;5054505;28;20447;-57
2023/07/18 00:47:42;;;;;;;0.70;0.70;;;;;;;;;;5060009;28;20186;-57
2023/07/18 00:50:08;;;;;;;1.00;0.90;;;;;;;;;;5059921;28;20264;-56
2023/07/18 00:52:36;;;;;;;0.80;0.80;;;;;;;;;;5071422;28;20185;-56
2023/07/18 00:55:03;;;;;;;0.80;0.80;;;;;;;;;;5080434;28;20190;-56
2023/07/18 00:57:29;;;;;;;1.05;0.90;;;;;;;;;;5079347;28;20178;-55
2023/07/18 00:59:55;;;;;;;1.85;0.95;;;;;;;;;;5079963;28;20204;-55
2023/07/18 01:02:21;;;;;;;0.80;0.80;;;;;;;;;;5058940;28;20288;-56
2023/07/18 01:04:48;;;;;;;0.98;0.88;;;;;;;;;;5054962;28;20186;-56
2023/07/18 01:07:15;;;;;;;1.05;0.88;;;;;;;;;;5062177;28;20222;-57
2023/07/18 01:09:43;;;;;;;1.08;0.80;;;;;;;;;;5080018;28;20198;-56
2023/07/18 01:12:09;;;;;;;1.17;0.80;;;;;;;;;;5080418;28;20538;-57
2023/07/18 01:14:35;;;;;;;0.70;0.70;;;;;;;;;;5080616;28;20208;-57
2023/07/18 01:17:01;;;;;;;2.38;0.80;;;;;;;;;;5080376;28;20209;-57
2023/07/18 01:19:27;;;;;;;0.77;0.77;;;;;;;;;;5069289;28;20182;-55
2023/07/18 01:21:53;;;;;;;1.00;0.90;;;;;;;;;;5079626;28;20186;-55
2023/07/18 01:24:19;;;;;;;1.15;0.73;;;;;;;;;;5080167;28;20194;-55
2023/07/18 01:26:45;;;;;;;0.85;0.73;;;;;;;;;;5080167;28;20240;-55
2023/07/18 01:29:11;;;;;;;0.68;0.68;;;;;;;;;;5079574;28;20186;-57
2023/07/18 01:31:37;;;;;;;1.00;0.60;;;;;;;;;;5080240;28;20174;-57
2023/07/18 01:34:04;;;;;;;0.98;0.80;;;;;;;;;;5080515;28;20210;-57
2023/07/18 01:36:30;;;;;;;0.70;0.70;;;;;;;;;;5055362;28;20174;-57
2023/07/18 01:38:57;;;;;;;0.82;0.80;;;;;;;;;;5054704;28;20186;-56
2023/07/18 01:41:23;;;;;;;0.73;0.73;;;;;;;;;;5054309;28;20187;-56
2023/07/18 01:43:49;;;;;;;1.30;0.70;;;;;;;;;;5056187;28;20236;-56
2023/07/18 01:46:15;;;;;;;1.00;0.70;;;;;;;;;;5056445;28;20643;-56
2023/07/18 01:48:41;;;;;;;0.82;0.70;;;;;;;;;;5055922;28;20266;-56
2023/07/18 01:51:07;;;;;;;0.93;0.93;;;;;;;;;;5056411;28;20218;-56
2023/07/18 01:53:32;;;;;;;0.70;0.70;;;;;;;;;;5068296;28;20262;-56
2023/07/18 01:55:59;;;;;;;0.70;0.70;;;;;;;;;;5052173;28;20545;-56
2023/07/18 01:58:25;;;;;;;0.60;0.60;;;;;;;;;;5055723;28;20461;-56
2023/07/18 02:00:51;;;;;;;0.63;0.60;;;;;;;;;;5055373;28;20191;-57
2023/07/18 02:03:16;;;;;;;1.08;0.77;;;;;;;;;;5052751;28;20448;-57
2023/07/18 02:05:43;;;;;;;0.60;0.60;;;;;;;;;;5041719;28;20681;-56
2023/07/18 02:08:09;;;;;;;0.95;0.68;;;;;;;;;;5053515;28;20171;-56
2023/07/18 02:10:35;;;;;;;0.73;0.70;;;;;;;;;;5055049;28;20210;-56
2023/07/18 02:13:02;;;;;;;0.80;0.80;;;;;;;;;;5049227;28;20518;-57
2023/07/18 02:15:28;;;;;;;0.70;0.70;;;;;;;;;;5055768;28;20182;-57
2023/07/18 02:17:54;;;;;;;0.90;0.90;;;;;;;;;;5056425;28;20184;-56
2023/07/18 02:20:20;;;;;;;0.80;0.75;;;;;;;;;;5055459;28;20198;-57
2023/07/18 02:22:47;;;;;;;0.77;0.77;;;;;;;;;;5064052;28;20182;-56
2023/07/18 02:25:15;;;;;;;1.35;0.70;;;;;;;;;;5052108;28;20215;-56
2023/07/18 02:27:41;;;;;;;0.85;0.70;;;;;;;;;;5055257;28;20225;-56
2023/07/18 02:30:09;;;;;;;1.02;0.73;;;;;;;;;;5055487;28;20203;-56
2023/07/18 02:32:35;;;;;;;0.80;0.80;;;;;;;;;;5055709;28;20182;-57
2023/07/18 02:35:01;;;;;;;0.57;0.57;;;;;;;;;;5055648;28;20179;-57
2023/07/18 02:37:27;;;;;;;0.70;0.70;;;;;;;;;;5051293;28;20175;-57
2023/07/18 02:39:53;;;;;;;0.70;0.70;;;;;;;;;;5055054;28;20194;-56
2023/07/18 02:42:19;;;;;;;0.50;0.50;;;;;;;;;;5051529;28;20189;-57
2023/07/18 02:44:45;;;;;;;0.63;0.60;;;;;;;;;;5045295;28;20461;-57
2023/07/18 02:47:11;;;;;;;0.95;0.70;;;;;;;;;;5040787;28;20218;-56
2023/07/18 02:49:37;;;;;;;1.20;1.05;;;;;;;;;;5054104;28;20227;-57
2023/07/18 02:52:03;;;;;;;1.48;0.70;;;;;;;;;;5056012;28;20198;-56
2023/07/18 02:54:29;;;;;;;0.93;0.70;;;;;;;;;;5061832;28;20171;-56
2023/07/18 02:56:56;;;;;;;1.02;0.75;;;;;;;;;;5054288;28;20579;-56
2023/07/18 02:59:22;;;;;;;0.70;0.70;;;;;;;;;;5050028;28;20430;-56
2023/07/18 03:01:54;;;;;;;1.23;0.88;;;;;;;;;;5055432;28;20216;-56
2023/07/18 03:04:20;;;;;;;0.60;0.60;;;;;;;;;;5053690;28;20186;-56
2023/07/18 03:06:47;;;;;;;0.70;0.60;;;;;;;;;;5055040;28;20230;-56
2023/07/18 03:09:16;;;;;;;0.60;0.60;;;;;;;;;;5054874;28;20175;-56
2023/07/18 03:11:41;;;;;;;0.65;0.52;;;;;;;;;;5055289;28;20182;-57
2023/07/18 03:14:08;;;;;;;1.50;0.80;;;;;;;;;;5054816;28;20171;-57
2023/07/18 03:16:34;;;;;;;0.57;0.57;;;;;;;;;;5055293;28;20190;-57
2023/07/18 03:19:00;;;;;;;0.90;0.77;;;;;;;;;;5069529;28;20167;-57
2023/07/18 03:21:26;;;;;;;0.57;0.50;;;;;;;;;;5074031;28;20186;-57
2023/07/18 03:23:53;;;;;;;0.50;0.50;;;;;;;;;;5075169;28;20202;-56
2023/07/18 03:26:19;;;;;;;0.68;0.68;;;;;;;;;;5074613;28;20190;-56
2023/07/18 03:28:45;;;;;;;0.63;0.63;;;;;;;;;;5074447;28;20166;-56
2023/07/18 03:31:11;;;;;;;0.90;0.57;;;;;;;;;;5059236;28;20226;-56
2023/07/18 03:33:37;;;;;;;0.70;0.70;;;;;;;;;;5054546;28;20262;-56
2023/07/18 03:36:05;;;;;;;0.55;0.55;;;;;;;;;;5055166;28;20253;-56
2023/07/18 03:38:31;;;;;;;0.70;0.70;;;;;;;;;;5054357;28;20179;-56
2023/07/18 03:40:58;;;;;;;0.65;0.55;;;;;;;;;;5055008;28;20486;-56
2023/07/18 03:43:24;;;;;;;0.60;0.50;;;;;;;;;;5054535;28;20183;-56
2023/07/18 03:45:51;;;;;;;0.60;0.55;;;;;;;;;;5054330;28;20229;-56
2023/07/18 03:48:16;;;;;;;0.50;0.50;;;;;;;;;;5049797;28;20203;-57
2023/07/18 03:50:43;;;;;;;0.95;0.70;;;;;;;;;;5047897;28;20261;-56
2023/07/18 03:53:09;;;;;;;0.70;0.70;;;;;;;;;;5069874;28;20175;-56
2023/07/18 03:55:35;;;;;;;0.77;0.63;;;;;;;;;;5074708;28;20235;-56
2023/07/18 03:58:00;;;;;;;2.13;0.65;;;;;;;;;;5047078;28;20194;-57
2023/07/18 04:00:26;;;;;;;0.52;0.52;;;;;;;;;;5053207;28;20195;-57
2023/07/18 04:02:52;;;;;;;0.60;0.60;;;;;;;;;;5049738;28;20195;-57
2023/07/18 04:05:19;;;;;;;0.80;0.80;;;;;;;;;;5054363;28;20239;-57
2023/07/18 04:07:46;;;;;;;0.77;0.77;;;;;;;;;;5049281;28;20175;-57
2023/07/18 04:10:12;;;;;;;0.85;0.60;;;;;;;;;;5054005;28;20210;-57
2023/07/18 04:12:38;;;;;;;0.50;0.50;;;;;;;;;;5049671;28;20175;-57
2023/07/18 04:15:05;;;;;;;1.27;0.60;;;;;;;;;;5052131;28;20366;-57
2023/07/18 04:17:31;;;;;;;0.77;0.77;;;;;;;;;;5051989;28;20186;-57
2023/07/18 04:20:00;;;;;;;0.68;0.68;;;;;;;;;;5049382;28;20186;-57
2023/07/18 04:22:29;;;;;;;0.60;0.60;;;;;;;;;;5052843;28;20194;-57
2023/07/18 04:24:55;;;;;;;0.57;0.57;;;;;;;;;;5054176;28;20190;-57
2023/07/18 04:27:21;;;;;;;0.60;0.60;;;;;;;;;;5052787;28;20183;-57
2023/07/18 04:29:47;;;;;;;0.40;0.40;;;;;;;;;;5047317;28;20203;-57
2023/07/18 04:32:13;;;;;;;0.60;0.60;;;;;;;;;;5050079;28;20187;-57
2023/07/18 04:34:39;;;;;;;0.50;0.50;;;;;;;;;;5053583;28;20187;-56
2023/07/18 04:37:05;;;;;;;0.60;0.40;;;;;;;;;;5053594;28;20422;-56
2023/07/18 04:39:31;;;;;;;0.60;0.60;;;;;;;;;;5053622;28;20190;-56
2023/07/18 04:41:57;;;;;;;0.80;0.80;;;;;;;;;;5052163;28;20233;-56
2023/07/18 04:44:23;;;;;;;0.60;0.60;;;;;;;;;;5051071;28;20182;-56
2023/07/18 04:46:49;;;;;;;0.90;0.80;;;;;;;;;;5050354;28;20258;-57
2023/07/18 04:49:16;;;;;;;0.40;0.40;;;;;;;;;;5048503;28;20184;-56
2023/07/18 04:51:42;;;;;;;0.73;0.73;;;;;;;;;;5056671;28;20253;-56
2023/07/18 04:54:08;;;;;;;0.40;0.40;;;;;;;;;;5053224;28;20258;-56
2023/07/18 04:56:34;;;;;;;0.50;0.50;;;;;;;;;;5052121;28;20293;-57
2023/07/18 04:59:00;;;;;;;0.50;0.50;;;;;;;;;;5049049;28;20197;-57
2023/07/18 05:01:28;;;;;;;0.93;0.60;;;;;;;;;;5053395;28;20190;-56
2023/07/18 05:03:55;;;;;;;0.63;0.63;;;;;;;;;;5052064;28;20183;-57
2023/07/18 05:06:21;;;;;;;0.60;0.60;;;;;;;;;;5054046;28;20566;-56
2023/07/18 05:08:46;;;;;;;0.57;0.57;;;;;;;;;;5052874;28;20183;-57
2023/07/18 05:11:12;;;;;;;1.00;0.50;;;;;;;;;;5053793;28;20218;-56
2023/07/18 05:13:38;;;;;;;0.40;0.40;;;;;;;;;;5053840;28;20183;-56
2023/07/18 05:16:04;;;;;;;0.47;0.47;;;;;;;;;;5053879;28;20175;-56
2023/07/18 05:18:30;;;;;;;1.00;0.80;;;;;;;;;;5050334;28;20230;-56
2023/07/18 05:20:57;;;;;;;0.63;0.60;;;;;;;;;;5061412;28;20225;-55
2023/07/18 05:23:23;;;;;;;1.13;0.73;;;;;;;;;;5076020;28;20178;-55
2023/07/18 05:25:49;;;;;;;1.95;0.68;;;;;;;;;;5077244;28;20258;-55
2023/07/18 05:28:15;;;;;;;0.88;0.55;;;;;;;;;;5076305;28;20293;-55
2023/07/18 05:30:41;;;;;;;0.60;0.52;;;;;;;;;;5076798;28;20336;-55
2023/07/18 05:33:08;;;;;;;0.75;0.60;;;;;;;;;;5076642;28;20573;-55
2023/07/18 05:35:34;;;;;;;0.65;0.60;;;;;;;;;;5069914;28;20530;-56
2023/07/18 05:38:03;;;;;;;0.60;0.60;;;;;;;;;;5053919;28;20263;-56
2023/07/18 05:40:29;;;;;;;1.45;0.50;;;;;;;;;;5053763;28;20187;-56
2023/07/18 05:42:55;;;;;;;0.50;0.50;;;;;;;;;;5051095;28;20194;-56
2023/07/18 05:45:21;;;;;;;0.70;0.70;;;;;;;;;;5064653;28;20198;-56
2023/07/18 05:47:49;;;;;;;0.60;0.60;;;;;;;;;;5061733;28;20195;-56
2023/07/18 05:50:15;;;;;;;0.60;0.60;;;;;;;;;;5055802;28;20257;-56
2023/07/18 05:52:41;;;;;;;3.50;0.60;;;;;;;;;;5054539;28;20547;-56
2023/07/18 05:55:08;;;;;;;0.52;0.50;;;;;;;;;;5070905;28;20537;-56
2023/07/18 05:57:34;;;;;;;0.70;0.70;;;;;;;;;;5068593;28;20206;-56
2023/07/18 06:00:01;;;;;;;0.50;0.50;;;;;;;;;;5056485;28;20198;-56
2023/07/18 06:02:27;;;;;;;1.20;0.60;;;;;;;;;;5050578;28;20551;-56
2023/07/18 06:04:53;;;;;;;0.40;0.40;;;;;;;;;;5056721;28;20236;-55
2023/07/18 06:07:18;;;;;;;0.77;0.77;;;;;;;;;;5051472;28;20175;-56
2023/07/18 06:09:44;;;;;;;0.90;0.52;;;;;;;;;;5055480;28;20206;-57
2023/07/18 06:12:12;;;;;;;0.82;0.80;;;;;;;;;;5055770;28;20451;-56
2023/07/18 06:14:38;;;;;;;0.50;0.50;;;;;;;;;;5056615;28;20183;-56
2023/07/18 06:17:04;;;;;;;0.60;0.60;;;;;;;;;;5056266;28;20199;-56
2023/07/18 06:19:30;;;;;;;0.77;0.63;;;;;;;;;;5052568;28;20190;-57
2023/07/18 06:21:57;;;;;;;0.57;0.55;;;;;;;;;;5058763;28;20179;-57
2023/07/18 06:24:24;;;;;;;0.50;0.50;;;;;;;;;;5075991;28;20216;-56
2023/07/18 06:26:50;;;;;;;0.60;0.55;;;;;;;;;;5055560;28;20195;-56
2023/07/18 06:29:17;;;;;;;1.10;0.68;;;;;;;;;;5055449;28;20441;-56
2023/07/18 06:31:44;;;;;;;1.95;0.65;;;;;;;;;;5056299;28;20190;-56
2023/07/18 06:34:11;;;;;;;0.50;0.40;;;;;;;;;;5054881;28;20266;-56
2023/07/18 06:36:37;;;;;;;0.70;0.50;;;;;;;;;;5056171;28;20271;-57
2023/07/18 06:39:05;;;;;;;0.55;0.55;;;;;;;;;;5054431;28;20217;-56
2023/07/18 06:41:31;;;;;;;1.65;0.60;;;;;;;;;;5054483;28;20171;-56
2023/07/18 06:43:58;;;;;;;0.63;0.63;;;;;;;;;;5053649;28;20631;-56
2023/07/18 06:46:24;;;;;;;0.57;0.57;;;;;;;;;;5048113;28;20183;-56
2023/07/18 06:48:50;;;;;;;0.82;0.80;;;;;;;;;;5052893;28;20188;-56
2023/07/18 06:51:16;;;;;;;0.60;0.60;;;;;;;;;;5055526;28;20477;-56
2023/07/18 06:53:41;;;;;;;0.50;0.50;;;;;;;;;;5075389;28;20178;-56
2023/07/18 06:56:07;;;;;;;0.50;0.50;;;;;;;;;;5075831;28;20163;-56
2023/07/18 06:58:34;;;;;;;0.52;0.52;;;;;;;;;;5066677;28;20290;-57
2023/07/18 07:00:59;;;;;;;0.57;0.57;;;;;;;;;;5052473;28;20523;-57
2023/07/18 07:03:25;;;;;;;0.50;0.50;;;;;;;;;;5052361;28;20205;-56
2023/07/18 07:05:51;;;;;;;0.60;0.60;;;;;;;;;;5055442;28;20187;-57
2023/07/18 07:08:19;;;;;;;0.50;0.50;;;;;;;;;;5055336;28;20183;-57
2023/07/18 07:10:45;;;;;;;0.55;0.50;;;;;;;;;;5055088;28;20605;-57
2023/07/18 07:13:12;;;;;;;0.50;0.50;;;;;;;;;;5055306;28;20179;-56
2023/07/18 07:15:38;;;;;;;0.40;0.40;;;;;;;;;;5053505;28;20182;-57
2023/07/18 07:18:04;;;;;;;1.38;0.70;;;;;;;;;;5055160;28;20179;-57
2023/07/18 07:20:34;;;;;;;0.60;0.60;;;;;;;;;;5054652;28;20262;-57
2023/07/18 07:23:01;;;;;;;2.25;0.98;;;;;;;;;;5052513;28;20682;-57
2023/07/18 07:25:28;;;;;;;0.60;0.60;;;;;;;;;;5052086;28;20212;-57
2023/07/18 07:27:54;;;;;;;0.55;0.55;;;;;;;;;;5047708;28;20450;-56
2023/07/18 07:30:20;;;;;;;0.52;0.52;;;;;;;;;;5054769;28;20210;-57
2023/07/18 07:32:51;;;;;;;0.77;0.60;;;;;;;;;;5045703;28;20187;-56
2023/07/18 07:35:18;;;;;;;0.70;0.70;;;;;;;;;;5054679;28;20558;-56
2023/07/18 07:37:44;;;;;;;0.70;0.70;;;;;;;;;;5047347;28;20175;-56
2023/07/18 07:40:11;;;;;;;0.77;0.73;;;;;;;;;;5054492;28;20187;-56
2023/07/18 07:42:41;;;;;;;0.60;0.60;;;;;;;;;;5048229;28;20209;-56
2023/07/18 07:45:07;;;;;;;0.57;0.57;;;;;;;;;;5054929;28;20250;-57
2023/07/18 07:47:33;;;;;;;1.33;0.60;;;;;;;;;;5054217;28;20432;-56
2023/07/18 07:50:01;;;;;;;0.50;0.50;;;;;;;;;;5053868;28;20207;-56
2023/07/18 07:52:26;;;;;;;0.57;0.57;;;;;;;;;;5059158;28;20174;-56
2023/07/18 07:54:52;;;;;;;0.60;0.60;;;;;;;;;;5056619;28;20198;-56
2023/07/18 07:57:18;;;;;;;0.63;0.63;;;;;;;;;;5054380;28;20182;-57
2023/07/18 07:59:44;;;;;;;0.60;0.60;;;;;;;;;;5054114;28;20183;-57
2023/07/18 08:02:13;;;;;;;0.70;0.70;;;;;;;;;;5051048;28;20445;-56
2023/07/18 08:04:39;;;;;;;0.93;0.70;;;;;;;;;;5048874;28;20187;-56
2023/07/18 08:07:05;;;;;;;0.60;0.60;;;;;;;;;;5046097;28;20183;-56
2023/07/18 08:09:31;;;;;;;0.70;0.70;;;;;;;;;;5047252;28;20582;-56
2023/07/18 08:11:58;;;;;;;0.60;0.60;;;;;;;;;;5053056;28;20175;-57
2023/07/18 08:14:24;;;;;;;0.95;0.68;;;;;;;;;;5052829;28;20292;-56
2023/07/18 08:16:50;;;;;;;0.70;0.40;;;;;;;;;;5054239;28;20183;-56
2023/07/18 08:19:16;;;;;;;0.80;0.80;;;;;;;;;;5050272;28;20453;-57
2023/07/18 08:21:42;;;;;;;0.40;0.40;;;;;;;;;;5054668;28;20268;-56
2023/07/18 08:24:08;;;;;;;0.60;0.60;;;;;;;;;;5067247;28;20195;-56
2023/07/18 08:26:34;;;;;;;0.57;0.57;;;;;;;;;;5069474;28;20581;-55
2023/07/18 08:29:01;;;;;;;0.45;0.45;;;;;;;;;;5070973;28;20183;-56
2023/07/18 08:31:26;;;;;;;0.60;0.60;;;;;;;;;;5054529;28;20538;-56
2023/07/18 08:33:53;;;;;;;0.68;0.68;;;;;;;;;;5053047;28;20257;-56
2023/07/18 08:36:18;;;;;;;0.50;0.50;;;;;;;;;;5046916;28;20196;-55
2023/07/18 08:38:49;;;;;;;0.90;0.80;;;;;;;;;;5046451;28;20270;-57
2023/07/18 08:41:15;;;;;;;0.60;0.60;;;;;;;;;;5053252;28;20641;-57
2023/07/18 08:43:41;;;;;;;0.50;0.50;;;;;;;;;;5053963;28;20183;-56
2023/07/18 08:46:08;;;;;;;0.50;0.50;;;;;;;;;;5053249;28;20179;-57
2023/07/18 08:48:34;;;;;;;0.60;0.60;;;;;;;;;;5053426;28;20186;-57
2023/07/18 08:51:00;;;;;;;0.60;0.60;;;;;;;;;;5053522;28;20217;-56
2023/07/18 08:53:26;;;;;;;0.55;0.55;;;;;;;;;;5073804;28;20497;-57
2023/07/18 08:55:53;;;;;;;0.50;0.50;;;;;;;;;;5053682;28;20264;-56
2023/07/18 08:58:23;;;;;;;0.68;0.60;;;;;;;;;;5057778;28;20221;-56
2023/07/18 09:00:49;;;;;;;0.60;0.60;;;;;;;;;;5053273;28;20561;-56
2023/07/18 09:03:15;;;;;;;0.60;0.60;;;;;;;;;;5049885;28;20183;-56
2023/07/18 09:05:41;;;;;;;0.75;0.60;;;;;;;;;;5057686;28;20224;-56
2023/07/18 09:08:07;;;;;;;0.57;0.57;;;;;;;;;;5057436;28;20175;-56
2023/07/18 09:10:33;;;;;;;0.50;0.50;;;;;;;;;;5057353;28;20265;-57
2023/07/18 09:13:04;;;;;;;0.70;0.70;;;;;;;;;;5050926;28;20183;-60
2023/07/18 09:15:30;;;;;;;0.60;0.60;;;;;;;;;;5057243;28;20269;-57
2023/07/18 09:17:57;;;;;;;0.60;0.60;;;;;;;;;;5058785;28;20500;-56
2023/07/18 09:20:27;;;;;;;0.50;0.50;;;;;;;;;;5076953;28;20728;-56
2023/07/18 09:22:57;;;;;;;0.52;0.52;;;;;;;;;;5077130;28;20197;-56
2023/07/18 09:25:24;;;;;;;1.08;0.63;;;;;;;;;;5077319;28;20240;-57
2023/07/18 09:27:56;;;;;;;0.63;0.63;;;;;;;;;;5076068;28;20265;-56
2023/07/18 09:30:35;;;;;;;0.68;0.68;;;;;;;;;;5049954;28;20214;-57
2023/07/18 09:33:05;;;;;;;0.73;0.70;;;;;;;;;;5057356;28;20228;-56
2023/07/18 09:35:35;;;;;;;0.82;0.60;;;;;;;;;;5057258;28;20189;-56
2023/07/18 09:38:01;;;;;;;0.68;0.68;;;;;;;;;;5056512;28;20187;-57
2023/07/18 09:40:28;;;;;;;0.60;0.60;;;;;;;;;;5056413;28;20191;-57
2023/07/18 09:42:54;;;;;;;0.60;0.60;;;;;;;;;;5052947;28;20188;-57
2023/07/18 09:45:21;;;;;;;0.60;0.60;;;;;;;;;;5054889;28;20175;-57
2023/07/18 09:47:47;;;;;;;0.82;0.60;;;;;;;;;;5053544;28;20273;-57
2023/07/18 09:50:14;;;;;;;0.60;0.60;;;;;;;;;;5051580;28;20230;-56
2023/07/18 09:52:41;;;;;;;0.50;0.50;;;;;;;;;;5057271;28;20262;-56
2023/07/18 09:55:07;;;;;;;1.17;0.70;;;;;;;;;;5055389;28;20179;-57
2023/07/18 09:57:35;;;;;;;1.08;0.70;;;;;;;;;;5054254;28;20191;-56
2023/07/18 10:00:05;;;;;;;0.88;0.60;;;;;;;;;;5056017;28;20209;-56
2023/07/18 10:02:34;;;;;;;0.45;0.45;;;;;;;;;;5052367;28;20302;-57
2023/07/18 10:05:02;;;;;;;0.47;0.47;;;;;;;;;;5055283;28;20554;-57
2023/07/18 10:07:29;;;;;;;0.88;0.80;;;;;;;;;;5056835;28;20179;-57
2023/07/18 10:09:55;;;;;;;0.57;0.57;;;;;;;;;;5054439;28;20203;-57
2023/07/18 10:12:21;;;;;;;0.75;0.70;;;;;;;;;;5056521;28;20163;-57
2023/07/18 10:14:57;;;;;;;0.52;0.43;;;;;;;;;;5054307;28;20630;-57
2023/07/18 10:17:27;;;;;;;0.50;0.50;;;;;;;;;;5056456;28;20200;-57
2023/07/18 10:19:53;;;;;;;0.50;0.50;;;;;;;;;;5050227;28;20278;-56
2023/07/18 10:22:26;;;;;;;0.52;0.52;;;;;;;;;;5064547;28;20262;-56
2023/07/18 10:24:52;;;;;;;0.60;0.60;;;;;;;;;;5063756;28;20198;-56
2023/07/18 10:27:24;;;;;;;0.57;0.57;;;;;;;;;;5056176;28;20210;-56
2023/07/18 10:30:03;;;;;;;0.80;0.50;;;;;;;;;;5055145;28;20215;-57
2023/07/18 10:32:33;;;;;;;0.90;0.60;;;;;;;;;;5056324;28;20217;-57
2023/07/18 10:34:59;;;;;;;0.70;0.50;;;;;;;;;;5053397;28;20171;-57
2023/07/18 10:37:26;;;;;;;0.50;0.50;;;;;;;;;;5061551;28;20558;-57
2023/07/18 10:39:53;;;;;;;0.30;0.30;;;;;;;;;;5055801;28;20175;-57
2023/07/18 10:42:24;;;;;;;0.60;0.60;;;;;;;;;;5075921;28;20174;-57
2023/07/18 10:44:58;;;;;;;0.45;0.45;;;;;;;;;;5076101;28;20615;-57
2023/07/18 10:47:24;;;;;;;0.60;0.60;;;;;;;;;;5075315;28;20179;-57
2023/07/18 10:49:50;;;;;;;0.70;0.70;;;;;;;;;;5062910;28;20199;-57
2023/07/18 10:52:17;;;;;;;0.60;0.60;;;;;;;;;;5062023;28;20186;-57
2023/07/18 10:55:06;;;;;;;0.80;0.80;;;;;;;;;;5055513;28;20562;-57
2023/07/18 10:57:34;;;;;;;2.67;0.60;;;;;;;;;;5048613;28;20175;-57
2023/07/18 11:00:03;;;;;;;0.55;0.50;;;;;;;;;;5050995;28;20175;-57
2023/07/18 11:02:35;;;;;;;0.85;0.70;;;;;;;;;;5054300;28;20582;-57
2023/07/18 11:05:06;;;;;;;0.70;0.70;;;;;;;;;;5055637;28;20432;-57
2023/07/18 11:07:33;;;;;;;0.52;0.50;;;;;;;;;;5055541;28;20191;-57
2023/07/18 11:09:59;;;;;;;0.60;0.52;;;;;;;;;;5053650;28;20203;-57
2023/07/18 11:12:25;;;;;;;0.73;0.73;;;;;;;;;;5055130;28;20186;-57
2023/07/18 11:14:51;;;;;;;0.55;0.50;;;;;;;;;;5054580;28;20180;-57
2023/07/18 11:17:17;;;;;;;0.63;0.63;;;;;;;;;;5053416;28;20371;-57
2023/07/18 11:19:43;;;;;;;0.55;0.55;;;;;;;;;;5069436;28;20581;-57
2023/07/18 11:22:16;;;;;;;0.50;0.50;;;;;;;;;;5074105;28;20311;-57
2023/07/18 11:24:45;;;;;;;0.70;0.70;;;;;;;;;;5065796;28;20208;-57
2023/07/18 11:27:15;;;;;;;0.80;0.60;;;;;;;;;;5052858;28;20600;-57
2023/07/18 11:29:41;;;;;;;0.50;0.50;;;;;;;;;;5054741;28;20229;-57
2023/07/18 11:32:07;;;;;;;0.75;0.40;;;;;;;;;;5055273;28;20175;-57
2023/07/18 11:34:33;;;;;;;0.40;0.40;;;;;;;;;;5055145;28;20605;-57
2023/07/18 11:36:59;;;;;;;0.50;0.50;;;;;;;;;;5050862;28;20266;-57
2023/07/18 11:39:28;;;;;;;0.63;0.60;;;;;;;;;;5055209;28;20195;-57
2023/07/18 11:42:05;;;;;;;0.32;0.32;;;;;;;;;;5060371;28;20449;-57
2023/07/18 11:44:31;;;;;;;0.82;0.68;;;;;;;;;;5044926;28;20459;-57
2023/07/18 11:46:57;;;;;;;0.95;0.55;;;;;;;;;;5054537;28;20198;-57
2023/07/18 11:49:33;;;;;;;0.50;0.50;;;;;;;;;;5053350;28;20241;-57
2023/07/18 11:52:01;;;;;;;0.40;0.40;;;;;;;;;;5060484;28;20204;-57
2023/07/18 11:54:27;;;;;;;0.70;0.70;;;;;;;;;;5067226;28;20187;-57
2023/07/18 11:56:53;;;;;;;1.42;0.60;;;;;;;;;;5051316;28;20554;-57
2023/07/18 11:59:21;;;;;;;0.40;0.40;;;;;;;;;;5050443;28;20232;-57
2023/07/18 12:01:47;;;;;;;0.65;0.50;;;;;;;;;;5050862;28;20253;-56
2023/07/18 12:04:14;;;;;;;0.50;0.45;;;;;;;;;;5044061;28;20196;-57
2023/07/18 12:06:41;;;;;;;0.55;0.55;;;;;;;;;;5042890;28;20565;-57
2023/07/18 12:09:07;;;;;;;0.50;0.50;;;;;;;;;;5034162;28;20190;-57
2023/07/18 12:11:33;;;;;;;0.55;0.55;;;;;;;;;;5042894;28;20261;-57
2023/07/18 12:14:02;;;;;;;0.50;0.50;;;;;;;;;;5041079;28;20194;-57
2023/07/18 12:16:28;;;;;;;0.50;0.50;;;;;;;;;;5037880;28;20176;-57
2023/07/18 12:18:54;;;;;;;0.93;0.60;;;;;;;;;;5048061;28;20241;-57
2023/07/18 12:21:19;;;;;;;0.60;0.50;;;;;;;;;;5056638;28;20282;-56
2023/07/18 12:23:45;;;;;;;0.65;0.65;;;;;;;;;;5072474;28;20241;-56
2023/07/18 12:26:11;;;;;;;0.68;0.60;;;;;;;;;;5042970;28;20202;-57
2023/07/18 12:28:37;;;;;;;0.50;0.50;;;;;;;;;;5058006;28;20201;-57
2023/07/18 12:31:05;;;;;;;0.40;0.40;;;;;;;;;;5048652;28;20233;-57
2023/07/18 12:33:30;;;;;;;0.57;0.50;;;;;;;;;;5053807;28;20495;-57
2023/07/18 12:35:57;;;;;;;0.60;0.60;;;;;;;;;;5052958;28;20175;-57
2023/07/18 12:38:24;;;;;;;0.50;0.50;;;;;;;;;;5053704;28;20297;-57
2023/07/18 12:40:50;;;;;;;0.55;0.55;;;;;;;;;;5051208;28;20176;-57
2023/07/18 12:43:16;;;;;;;0.50;0.50;;;;;;;;;;5053930;28;20187;-57
2023/07/18 12:45:42;;;;;;;0.40;0.40;;;;;;;;;;5048541;28;20171;-57
2023/07/18 12:48:08;;;;;;;0.55;0.40;;;;;;;;;;5049081;28;20454;-57
2023/07/18 12:50:34;;;;;;;0.60;0.60;;;;;;;;;;5053042;28;20214;-57
2023/07/18 12:53:01;;;;;;;0.50;0.50;;;;;;;;;;5067997;28;20263;-57
2023/07/18 12:55:27;;;;;;;0.60;0.60;;;;;;;;;;5055935;28;20194;-57
2023/07/18 12:57:53;;;;;;;0.50;0.43;;;;;;;;;;5053740;28;20535;-56
2023/07/18 13:00:19;;;;;;;1.00;0.70;;;;;;;;;;5047975;28;20238;-56
2023/07/18 13:02:46;;;;;;;0.88;0.75;;;;;;;;;;5052127;28;20278;-56
2023/07/18 13:05:13;;;;;;;0.50;0.50;;;;;;;;;;5054032;28;20209;-56
2023/07/18 13:07:39;;;;;;;0.70;0.70;;;;;;;;;;5073838;28;20175;-56
2023/07/18 13:10:05;;;;;;;0.60;0.60;;;;;;;;;;5073162;28;20190;-56
2023/07/18 13:12:32;;;;;;;0.60;0.60;;;;;;;;;;5073925;28;20230;-56
2023/07/18 13:14:58;;;;;;;0.35;0.35;;;;;;;;;;5073177;28;20217;-57
2023/07/18 13:17:24;;;;;;;0.50;0.50;;;;;;;;;;5070218;28;20214;-57
2023/07/18 13:19:50;;;;;;;0.40;0.40;;;;;;;;;;5053393;28;20217;-57
2023/07/18 13:22:16;;;;;;;0.60;0.60;;;;;;;;;;5058628;28;20187;-57
2023/07/18 13:24:41;;;;;;;0.88;0.60;;;;;;;;;;5059380;28;20205;-57
2023/07/18 13:27:08;;;;;;;0.50;0.50;;;;;;;;;;5053162;28;20199;-57
2023/07/18 13:29:35;;;;;;;0.50;0.50;;;;;;;;;;5052911;28;20266;-57
2023/07/18 13:32:01;;;;;;;0.50;0.50;;;;;;;;;;5053903;28;20167;-57
2023/07/18 13:34:27;;;;;;;0.60;0.50;;;;;;;;;;5053282;28;20179;-57
2023/07/18 13:36:53;;;;;;;0.50;0.50;;;;;;;;;;5053439;28;20190;-57
2023/07/18 13:39:19;;;;;;;0.50;0.50;;;;;;;;;;5051415;28;20179;-56
2023/07/18 13:41:45;;;;;;;0.40;0.40;;;;;;;;;;5048136;28;20190;-56
2023/07/18 13:44:12;;;;;;;1.02;0.35;;;;;;;;;;5055843;28;20284;-56
2023/07/18 13:46:38;;;;;;;0.50;0.50;;;;;;;;;;5057216;28;20214;-57
2023/07/18 13:49:03;;;;;;;0.70;0.70;;;;;;;;;;5056245;28;20572;-57
2023/07/18 13:51:31;;;;;;;0.70;0.57;;;;;;;;;;5058016;28;20238;-57
2023/07/18 13:53:57;;;;;;;0.68;0.50;;;;;;;;;;5077254;28;20311;-56
2023/07/18 13:56:23;;;;;;;0.40;0.40;;;;;;;;;;5055722;28;20801;-57
2023/07/18 13:58:49;;;;;;;0.50;0.50;;;;;;;;;;5054635;28;20179;-57
2023/07/18 14:01:15;;;;;;;0.50;0.50;;;;;;;;;;5052520;28;20309;-57
2023/07/18 14:03:41;;;;;;;0.40;0.40;;;;;;;;;;5054439;28;20286;-57
2023/07/18 14:06:07;;;;;;;0.60;0.60;;;;;;;;;;5056913;28;20175;-58
2023/07/18 14:08:33;;;;;;;0.45;0.45;;;;;;;;;;5054766;28;20335;-57
2023/07/18 14:10:59;;;;;;;0.50;0.40;;;;;;;;;;5055348;28;20485;-56
2023/07/18 14:13:25;;;;;;;0.40;0.40;;;;;;;;;;5054079;28;20534;-56
2023/07/18 14:15:51;;;;;;;0.68;0.68;;;;;;;;;;5056741;28;20171;-57
2023/07/18 14:18:17;;;;;;;0.50;0.50;;;;;;;;;;5055382;28;20174;-57
2023/07/18 14:20:43;;;;;;;0.55;0.40;;;;;;;;;;5055527;28;20605;-57
2023/07/18 14:23:09;;;;;;;0.57;0.57;;;;;;;;;;5056610;28;20179;-57
2023/07/18 14:25:35;;;;;;;0.55;0.55;;;;;;;;;;5053362;28;20199;-57
2023/07/18 14:28:01;;;;;;;0.55;0.43;;;;;;;;;;5054912;28;20435;-57
2023/07/18 14:30:27;;;;;;;0.50;0.50;;;;;;;;;;5055241;28;20210;-57
2023/07/18 14:32:53;;;;;;;0.40;0.40;;;;;;;;;;5054275;28;20492;-57
2023/07/18 14:35:19;;;;;;;0.60;0.52;;;;;;;;;;5056449;28;20175;-57
2023/07/18 14:37:45;;;;;;;0.40;0.40;;;;;;;;;;5055526;28;20179;-57
2023/07/18 14:40:11;;;;;;;0.50;0.50;;;;;;;;;;5055592;28;20190;-57